createdAt,value
2022-09-23T00:04:08.607Z,6.1
2022-09-23T00:09:57.281Z,5.5
2022-09-23T00:15:48.186Z,6.4
2022-09-23T00:21:38.681Z,6.1
2022-09-23T00:27:29.581Z,6
2022-09-23T00:33:19.965Z,5.4
2022-09-23T00:39:11.208Z,7
2022-09-23T00:45:02.043Z,7.4
2022-09-23T00:50:53.957Z,5.2
2022-09-23T00:56:44.662Z,6.6
2022-09-23T01:02:36.207Z,5.7
2022-09-23T01:08:28.733Z,5.5
2022-09-23T01:14:19.261Z,7.8
2022-09-23T01:20:10.106Z,10
2022-09-23T01:26:01.401Z,8.7
2022-09-23T01:31:53.183Z,8.9
2022-09-23T01:37:45.006Z,7.4
2022-09-23T01:43:36.088Z,7.3
2022-09-23T01:49:30.165Z,9.3
2022-09-23T01:55:20.642Z,6.7
2022-09-23T02:01:11.948Z,7.6
2022-09-23T02:07:04.533Z,9
2022-09-23T02:12:55.713Z,8.2
2022-09-23T02:18:47.027Z,8.1
2022-09-23T02:24:37.932Z,6.4
2022-09-23T02:30:28.602Z,6.8
2022-09-23T02:36:19.536Z,6.1
2022-09-23T02:42:10.281Z,7
2022-09-23T02:48:01.338Z,6
2022-09-23T02:53:52.056Z,9.7
2022-09-23T02:59:44.748Z,8.9
2022-09-23T03:05:35.475Z,8.6
2022-09-23T03:11:26.399Z,8
2022-09-23T03:17:18.536Z,9.3
2022-09-23T03:23:10.222Z,9
2022-09-23T03:29:01.193Z,7.7
2022-09-23T03:34:53.122Z,9.4
2022-09-23T03:40:42.885Z,8
2022-09-23T03:46:34.033Z,8.2
2022-09-23T03:52:26.332Z,7.1
2022-09-23T03:58:17.678Z,11.3
2022-09-23T04:04:08.503Z,6.6
2022-09-23T04:10:00.034Z,9.4
2022-09-23T04:15:51.141Z,9.4
2022-09-23T04:21:43.222Z,20
2022-09-23T04:27:41.266Z,14.6
2022-09-23T04:33:31.723Z,10.8
2022-09-23T04:39:22.342Z,10.5
2022-09-23T05:41:54.252Z,12.5
2022-09-23T05:48:15.038Z,12.6
2022-09-23T05:54:12.348Z,11.4
2022-09-23T06:00:45.063Z,11.1
2022-09-23T06:07:15.894Z,13.3
2022-09-23T06:20:05.306Z,12.7
2022-09-23T06:26:08.480Z,12.4
2022-09-23T06:38:00.047Z,9.1
2022-09-23T06:43:56.779Z,10.3
2022-09-23T06:50:04.571Z,11.7
2022-09-23T06:55:56.737Z,11.2
2022-09-23T07:02:03.045Z,8.3
2022-09-23T07:07:59.568Z,15.6
2022-09-23T07:20:30.538Z,12.3
2022-09-23T07:46:04.479Z,7.5
2022-09-23T07:58:41.536Z,10.2
2022-09-23T08:29:19.924Z,7.4
2022-09-23T08:42:12.298Z,6.3
2022-09-23T08:54:22.365Z,8.1
2022-09-23T09:00:17.543Z,6.4
2022-09-23T09:06:08.520Z,6.4
2022-09-23T09:12:00.621Z,8.1
2022-09-23T09:18:06.083Z,8
2022-09-23T09:24:02.631Z,8.3
2022-09-23T09:29:55.143Z,6.3
2022-09-23T09:35:49.345Z,5.9
2022-09-23T09:41:41.320Z,6.5
2022-09-23T09:47:32.731Z,5.7
2022-09-23T09:53:24.389Z,7
2022-09-23T10:05:35.153Z,5.7
2022-09-23T10:11:29.818Z,4
2022-09-23T10:17:21.707Z,6.1
2022-09-23T10:23:13.689Z,4.9
2022-09-23T10:29:06.394Z,4.3
2022-09-23T10:35:12.201Z,6
2022-09-23T10:41:03.276Z,5.9
2022-09-23T10:46:54.512Z,6
2022-09-23T10:52:46.416Z,4.9
2022-09-23T10:58:38.911Z,6.4
2022-09-23T11:04:30.779Z,4.8
2022-09-23T11:16:49.569Z,5.9
2022-09-23T11:22:48.227Z,5.5
2022-09-23T11:28:56.046Z,5.8
2022-09-23T12:06:28.055Z,5.4
2022-09-23T12:12:40.783Z,4.8
2022-09-23T12:18:30.851Z,5.6
2022-09-23T12:24:25.855Z,3.8
2022-09-23T12:30:17.197Z,4.6
2022-09-23T12:36:17.133Z,3.9
2022-09-23T12:42:16.472Z,3.9
2022-09-23T12:48:11.147Z,2.8
2022-09-23T12:54:08.611Z,3.2
2022-09-23T13:00:01.618Z,4.4
2022-09-23T13:06:01.146Z,5.4
2022-09-23T13:12:21.561Z,5.6
2022-09-23T13:18:26.738Z,5.1
2022-09-23T13:24:40.001Z,5.7
2022-09-23T13:30:41.138Z,5.1
2022-09-23T13:36:33.649Z,8.3
2022-09-23T13:42:26.856Z,4.9
2022-09-23T13:48:19.806Z,4.5
2022-09-23T13:54:12.342Z,6.3
2022-09-23T14:00:09.192Z,5.7
2022-09-23T14:06:16.563Z,5.8
2022-09-23T14:18:09.483Z,7.1
2022-09-23T14:24:00.424Z,16.2
2022-09-23T14:29:51.418Z,17.8
2022-09-23T14:35:46.754Z,12.3
2022-09-23T14:41:39.698Z,9.5
2022-09-23T14:47:31.104Z,8.2
2022-09-23T14:53:21.024Z,7.3
2022-09-23T14:59:12.483Z,7.5
2022-09-23T15:05:03.432Z,10.1
2022-09-23T15:10:58.245Z,7.7
2022-09-23T15:16:52.556Z,7.4
2022-09-23T15:22:46.674Z,6.5
2022-09-23T15:28:39.163Z,6.2
2022-09-23T15:34:31.927Z,5.9
2022-09-23T15:40:23.259Z,5.8
2022-09-23T15:46:16.294Z,6.4
2022-09-23T15:52:17.980Z,7.6
2022-09-23T15:58:37.011Z,6.5
2022-09-23T16:04:48.566Z,5.3
2022-09-23T16:10:57.302Z,4.9
2022-09-23T16:35:43.548Z,14.1
2022-09-23T16:41:46.855Z,19.5
2022-09-23T16:53:45.987Z,17.5
2022-09-23T17:13:53.957Z,28
2022-09-23T17:19:46.312Z,33.4
2022-09-23T17:25:38.550Z,42.1
2022-09-23T17:31:43.792Z,26.5
2022-09-23T17:37:41.851Z,12.5
2022-09-23T17:43:51.772Z,35.4
2022-09-23T17:49:46.798Z,32.7
2022-09-23T17:55:39.082Z,28.9
2022-09-23T18:01:28.900Z,39.7
2022-09-23T18:07:35.849Z,61.2
2022-09-23T18:13:44.606Z,55.4
2022-09-23T18:19:39.821Z,43.8
2022-09-23T18:25:46.662Z,23.3
2022-09-23T18:31:37.624Z,17
2022-09-23T18:37:32.095Z,14.2
2022-09-23T18:43:42.322Z,14.3
2022-09-23T18:49:38.604Z,33
2022-09-23T18:55:32.119Z,47.4
2022-09-23T19:01:23.095Z,43.3
2022-09-23T19:07:16.242Z,32.3
2022-09-23T19:13:13.144Z,19.1
2022-09-23T19:25:51.932Z,12.3
2022-09-23T19:38:50.528Z,12.1
2022-09-23T19:44:53.310Z,10.3
2022-09-23T19:50:44.883Z,10
2022-09-23T19:56:36.621Z,9.1
2022-09-23T20:02:42.191Z,11.8
2022-09-23T20:09:14.909Z,14.9
2022-09-23T20:15:24.696Z,13.4
2022-09-23T20:21:31.937Z,11.3
2022-09-23T20:27:28.676Z,10.9
2022-09-23T20:40:16.950Z,7.8
2022-09-23T21:17:02.746Z,11.1
2022-09-23T21:23:35.877Z,11.8
2022-09-23T21:29:46.297Z,13.1
